Time;durP1;ratioP1;P1;durP2;ratioP2;P2;SDS_P1;SDS_P2;PMS_P1;PMS_P2;Temp;Humidity;BMP_temperature;BMP_pressure;BME280_temperature;BME280_humidity;BME280_pressure;Samples;Min_cycle;Max_cycle;Signal;HPM_P1;HPM_P2
2022/11/14 00:00:01;;;;;;;;;;;23.80;52.80;;;;;;6125473;23;20232;-69
2022/11/14 00:02:28;;;;;;;;;;;23.80;54.90;;;;;;6099564;23;19917;-69
2022/11/14 00:04:54;;;;;;;;;;;23.90;52.00;;;;;;6099556;23;19952;-69
2022/11/14 00:07:21;;;;;;;;;;;24.00;48.90;;;;;;6125424;23;19905;-69
2022/11/14 00:09:47;;;;;;;;;;;24.00;50.00;;;;;;6125295;23;20365;-71
2022/11/14 00:12:14;;;;;;;;;;;24.10;47.70;;;;;;6125496;23;20030;-70
2022/11/14 00:14:41;;;;;;;;;;;24.20;46.20;;;;;;6125305;23;19912;-71
2022/11/14 00:17:07;;;;;;;;;;;24.20;45.00;;;;;;6125303;23;19905;-70
2022/11/14 00:19:34;;;;;;;;;;;24.20;45.80;;;;;;6124622;23;20269;-70
2022/11/14 00:22:01;;;;;;;;;;;24.20;44.80;;;;;;6125509;23;19952;-72
2022/11/14 00:24:27;;;;;;;;;;;24.50;43.10;;;;;;6125321;23;20189;-70
2022/11/14 00:26:54;;;;;;;;;;;24.40;44.60;;;;;;6125029;23;19916;-69
2022/11/14 00:29:21;;;;;;;;;;;24.30;46.20;;;;;;6125169;23;19927;-69
2022/11/14 00:31:47;;;;;;;;;;;24.30;45.60;;;;;;6125218;23;19928;-70
2022/11/14 00:34:14;;;;;;;;;;;24.50;42.40;;;;;;6125231;23;19912;-70
2022/11/14 00:36:41;;;;;;;;;;;24.40;44.10;;;;;;6125013;23;20284;-71
2022/11/14 00:39:09;;;;;;;;;;;24.40;44.80;;;;;;6124646;23;19905;-71
2022/11/14 00:41:35;;;;;;;;;;;24.40;46.30;;;;;;6099053;23;19935;-70
2022/11/14 00:44:02;;;;;;;;;;;24.40;46.40;;;;;;6125196;23;19932;-70
2022/11/14 00:46:29;;;;;;;;;;;24.30;47.00;;;;;;6124988;23;19905;-70
2022/11/14 00:48:55;;;;;;;;;;;24.30;47.20;;;;;;6124563;23;19912;-70
2022/11/14 00:51:22;;;;;;;;;;;24.30;47.70;;;;;;6125505;23;19909;-70
2022/11/14 00:53:48;;;;;;;;;;;24.30;46.30;;;;;;6125193;23;19909;-69
2022/11/14 00:56:15;;;;;;;;;;;24.30;46.60;;;;;;6124846;23;19912;-71
2022/11/14 00:58:42;;;;;;;;;;;24.30;46.30;;;;;;6125204;23;19983;-70
2022/11/14 01:01:08;;;;;;;;;;;24.30;46.80;;;;;;6124819;23;19920;-70
2022/11/14 01:03:35;;;;;;;;;;;24.30;45.40;;;;;;6124808;23;19920;-69
2022/11/14 01:06:05;;;;;;;;;;;24.30;45.40;;;;;;6124658;23;19912;-69
2022/11/14 01:08:32;;;;;;;;;;;24.20;45.50;;;;;;6125104;23;19905;-70
2022/11/14 01:10:59;;;;;;;;;;;24.10;47.40;;;;;;6101475;23;19909;-70
2022/11/14 01:13:26;;;;;;;;;;;24.10;47.30;;;;;;6126802;23;19952;-69
2022/11/14 01:15:53;;;;;;;;;;;24.20;48.20;;;;;;6126844;23;19905;-70
2022/11/14 01:18:20;;;;;;;;;;;24.20;47.90;;;;;;6125956;23;19956;-70
2022/11/14 01:20:47;;;;;;;;;;;24.20;47.90;;;;;;6123252;23;20351;-70
2022/11/14 01:23:14;;;;;;;;;;;24.20;47.80;;;;;;6125269;23;19943;-70
2022/11/14 01:25:41;;;;;;;;;;;24.20;47.80;;;;;;6125082;23;20313;-71
2022/11/14 01:28:11;;;;;;;;;;;24.30;47.10;;;;;;6125624;23;19997;-71
2022/11/14 01:30:37;;;;;;;;;;;24.30;48.40;;;;;;6099824;23;20297;-71
2022/11/14 01:33:04;;;;;;;;;;;24.40;46.20;;;;;;6126530;23;19988;-72
2022/11/14 01:35:31;;;;;;;;;;;24.40;44.50;;;;;;6125943;23;19912;-72
2022/11/14 01:37:58;;;;;;;;;;;24.50;43.70;;;;;;6125954;23;19905;-69
2022/11/14 01:40:24;;;;;;;;;;;24.70;42.90;;;;;;6125378;23;19905;-69
2022/11/14 01:43:09;;;;;;;;;;;24.60;44.50;;;;;;6125195;23;20320;-68
2022/11/14 01:45:41;;;;;;;;;;;24.40;43.60;;;;;;6125738;23;19951;-68
2022/11/14 01:48:21;;;;;;;;;;;24.40;45.50;;;;;;6125850;23;19909;-69
2022/11/14 01:50:48;;;;;;;;;;;24.50;43.80;;;;;;6100467;23;19956;-69
2022/11/14 01:53:15;;;;;;;;;;;24.70;44.30;;;;;;6125674;23;19912;-69
2022/11/14 01:55:42;;;;;;;;;;;24.70;43.70;;;;;;6125857;23;19932;-68
2022/11/14 01:58:08;;;;;;;;;;;24.70;44.70;;;;;;6099843;23;19912;-69
2022/11/14 02:00:35;;;;;;;;;;;24.90;42.80;;;;;;6124802;23;19909;-69
2022/11/14 02:03:01;;;;;;;;;;;24.90;42.00;;;;;;6099335;23;19913;-69
2022/11/14 02:05:28;;;;;;;;;;;24.90;44.10;;;;;;6124996;23;19912;-69
2022/11/14 02:07:55;;;;;;;;;;;24.90;43.90;;;;;;6099805;23;19912;-69
2022/11/14 02:10:21;;;;;;;;;;;24.90;42.80;;;;;;6125809;23;19921;-68
2022/11/14 02:12:48;;;;;;;;;;;24.80;43.00;;;;;;6125745;23;19987;-68
2022/11/14 02:15:15;;;;;;;;;;;24.80;43.60;;;;;;6125505;23;19905;-69
2022/11/14 02:17:41;;;;;;;;;;;24.80;43.90;;;;;;6099331;23;19975;-68
2022/11/14 02:20:11;;;;;;;;;;;24.80;41.90;;;;;;6125066;23;19905;-68
2022/11/14 02:22:39;;;;;;;;;;;24.70;42.50;;;;;;6124970;23;19995;-68
2022/11/14 02:25:06;;;;;;;;;;;24.70;42.90;;;;;;6125421;23;19909;-69
2022/11/14 02:27:32;;;;;;;;;;;24.60;43.80;;;;;;6124455;23;20244;-68
2022/11/14 02:30:06;;;;;;;;;;;24.70;42.70;;;;;;6099095;23;19905;-68
2022/11/14 02:32:33;;;;;;;;;;;24.80;43.10;;;;;;6125750;23;19905;-68
2022/11/14 02:34:59;;;;;;;;;;;24.80;42.20;;;;;;6125661;23;19905;-68
2022/11/14 02:37:26;;;;;;;;;;;24.80;42.40;;;;;;6126240;23;20281;-68
2022/11/14 02:39:53;;;;;;;;;;;24.80;43.00;;;;;;6126548;23;19960;-69
2022/11/14 02:42:19;;;;;;;;;;;24.90;44.70;;;;;;6126047;23;19951;-68
2022/11/14 02:44:46;;;;;;;;;;;24.90;43.60;;;;;;6126074;23;19932;-68
2022/11/14 02:47:12;;;;;;;;;;;25.00;43.80;;;;;;6126284;23;20236;-69
2022/11/14 02:49:39;;;;;;;;;;;25.00;42.70;;;;;;6126316;23;19905;-69
2022/11/14 02:52:06;;;;;;;;;;;25.00;42.20;;;;;;6126649;23;20232;-69
2022/11/14 02:54:32;;;;;;;;;;;24.90;42.90;;;;;;6125997;23;20316;-69
2022/11/14 02:56:59;;;;;;;;;;;25.00;41.10;;;;;;6126100;23;19952;-69
2022/11/14 02:59:25;;;;;;;;;;;24.90;42.00;;;;;;6126391;23;19912;-69
2022/11/14 03:01:52;;;;;;;;;;;24.80;41.70;;;;;;6126290;23;20005;-68
2022/11/14 03:04:18;;;;;;;;;;;24.80;42.30;;;;;;6126212;23;19956;-68
2022/11/14 03:06:45;;;;;;;;;;;24.80;42.80;;;;;;6126160;23;20316;-68
2022/11/14 03:09:12;;;;;;;;;;;24.90;43.60;;;;;;6125610;23;20289;-69
2022/11/14 03:11:38;;;;;;;;;;;25.00;43.00;;;;;;6125894;23;20027;-68
2022/11/14 03:14:05;;;;;;;;;;;25.00;42.70;;;;;;6126153;23;20324;-68
2022/11/14 03:16:32;;;;;;;;;;;25.10;40.90;;;;;;6125779;23;19932;-68
2022/11/14 03:18:58;;;;;;;;;;;25.20;41.10;;;;;;6126531;23;19987;-68
2022/11/14 03:21:25;;;;;;;;;;;25.30;41.30;;;;;;6126349;23;19979;-68
2022/11/14 13:52:55;;;;;;;;;;;20.00;60.70;;;;;;6119604;23;19925;-75
2022/11/14 13:55:22;;;;;;;;;;;20.00;58.90;;;;;;6097925;23;19917;-75
2022/11/14 13:58:12;;;;;;;;;;;20.00;60.90;;;;;;6071956;23;20313;-74
2022/11/14 14:00:51;;;;;;;;;;;20.00;59.80;;;;;;6017045;23;19906;-75
2022/11/14 14:03:37;;;;;;;;;;;20.00;61.00;;;;;;6068652;23;19914;-75
2022/11/14 14:06:08;;;;;;;;;;;20.00;60.50;;;;;;5996601;23;20322;-75
2022/11/14 14:08:34;;;;;;;;;;;20.00;61.50;;;;;;6043835;23;19953;-74
2022/11/14 14:11:04;;;;;;;;;;;19.90;60.70;;;;;;6068328;23;19929;-75
2022/11/14 14:13:39;;;;;;;;;;;19.90;60.00;;;;;;6068699;23;19980;-74
2022/11/14 14:16:13;;;;;;;;;;;19.80;60.80;;;;;;6042690;23;19941;-75
2022/11/14 14:19:12;;;;;;;;;;;19.80;61.10;;;;;;6043123;23;19961;-75
2022/11/14 14:21:47;;;;;;;;;;;19.80;61.00;;;;;;5989911;23;19910;-75
2022/11/14 14:24:14;;;;;;;;;;;19.80;61.00;;;;;;6043166;23;19918;-76
2022/11/14 14:26:40;;;;;;;;;;;19.70;61.60;;;;;;6069031;23;19938;-75
2022/11/14 14:29:27;;;;;;;;;;;19.70;62.00;;;;;;6068495;23;19906;-75
2022/11/14 14:31:53;;;;;;;;;;;19.70;61.70;;;;;;6068449;23;19929;-76
2022/11/14 14:34:21;;;;;;;;;;;19.70;62.80;;;;;;6043378;23;19906;-77
2022/11/14 14:36:51;;;;;;;;;;;19.70;62.00;;;;;;6068534;23;19905;-76
2022/11/14 14:39:19;;;;;;;;;;;19.70;62.00;;;;;;6042881;23;19910;-77
2022/11/14 14:41:46;;;;;;;;;;;19.70;62.20;;;;;;6068364;23;19980;-76
2022/11/14 14:44:18;;;;;;;;;;;19.60;62.40;;;;;;6068564;23;19965;-76
2022/11/14 14:46:45;;;;;;;;;;;19.60;62.20;;;;;;6068247;23;19906;-77
2022/11/14 14:49:11;;;;;;;;;;;19.50;62.50;;;;;;6068303;23;19905;-76
2022/11/14 14:51:38;;;;;;;;;;;19.60;62.50;;;;;;6043293;23;20329;-77
2022/11/14 14:54:06;;;;;;;;;;;19.50;63.00;;;;;;6068284;23;19952;-77
2022/11/14 14:56:33;;;;;;;;;;;19.50;62.90;;;;;;6019673;23;19912;-77
2022/11/14 14:58:59;;;;;;;;;;;19.50;63.00;;;;;;6042777;23;19933;-77
2022/11/14 15:01:33;;;;;;;;;;;19.40;63.10;;;;;;6042840;23;19976;-77
2022/11/14 15:04:06;;;;;;;;;;;19.40;64.00;;;;;;6068424;23;19913;-77
2022/11/14 15:06:33;;;;;;;;;;;19.40;64.50;;;;;;6068188;23;19921;-77
2022/11/14 15:09:01;;;;;;;;;;;19.40;64.70;;;;;;6042480;23;19906;-76
2022/11/14 15:11:27;;;;;;;;;;;19.40;64.80;;;;;;6067990;23;19910;-76
2022/11/14 15:13:55;;;;;;;;;;;19.40;64.90;;;;;;6042955;23;20352;-76
2022/11/14 15:16:22;;;;;;;;;;;19.30;65.10;;;;;;6042476;23;19916;-76
2022/11/14 15:18:49;;;;;;;;;;;19.30;65.10;;;;;;6042696;23;19945;-75
2022/11/14 15:21:23;;;;;;;;;;;19.30;65.30;;;;;;6042676;23;19961;-76
2022/11/14 15:23:59;;;;;;;;;;;19.20;65.80;;;;;;6066893;23;19920;-75
2022/11/14 15:26:25;;;;;;;;;;;19.20;65.70;;;;;;6067589;23;19937;-76
2022/11/14 15:28:52;;;;;;;;;;;19.20;66.10;;;;;;6042116;23;19906;-76
2022/11/14 15:31:19;;;;;;;;;;;19.20;66.40;;;;;;6067935;23;19965;-76
2022/11/14 15:33:46;;;;;;;;;;;19.10;66.20;;;;;;6042630;23;20281;-76
2022/11/14 15:36:13;;;;;;;;;;;19.10;66.50;;;;;;6068056;23;19938;-76
2022/11/14 15:38:40;;;;;;;;;;;19.10;66.70;;;;;;6042779;23;19906;-76
2022/11/14 15:41:17;;;;;;;;;;;19.10;66.40;;;;;;6042588;23;19905;-75
2022/11/14 15:43:44;;;;;;;;;;;19.10;65.80;;;;;;6042385;23;19997;-76
2022/11/14 15:46:27;;;;;;;;;;;19.10;66.00;;;;;;6067886;23;20266;-76
2022/11/14 15:48:53;;;;;;;;;;;19.10;65.70;;;;;;6042258;23;19938;-76
2022/11/14 15:51:38;;;;;;;;;;;19.10;66.20;;;;;;6042811;23;19906;-76
2022/11/14 15:54:05;;;;;;;;;;;19.10;66.80;;;;;;6066899;23;19929;-76
2022/11/14 15:56:32;;;;;;;;;;;19.10;66.90;;;;;;6067354;23;20257;-76
2022/11/14 15:58:58;;;;;;;;;;;19.10;66.00;;;;;;6067809;23;19906;-76
2022/11/14 16:01:25;;;;;;;;;;;19.00;66.20;;;;;;6067849;23;19905;-76
2022/11/14 16:03:52;;;;;;;;;;;19.10;66.20;;;;;;6067785;23;19976;-76
2022/11/14 16:06:18;;;;;;;;;;;19.10;66.20;;;;;;6042051;23;19944;-76
2022/11/14 16:08:45;;;;;;;;;;;19.10;66.00;;;;;;6067431;23;20348;-76
2022/11/14 16:11:12;;;;;;;;;;;19.10;66.00;;;;;;6067546;23;19944;-76
2022/11/14 16:13:38;;;;;;;;;;;19.10;66.10;;;;;;6067670;23;19914;-76
2022/11/14 16:16:05;;;;;;;;;;;19.10;65.60;;;;;;6067142;23;19910;-76
2022/11/14 16:18:32;;;;;;;;;;;19.00;65.50;;;;;;6041587;23;19906;-76
2022/11/14 16:20:58;;;;;;;;;;;19.00;65.70;;;;;;6067515;23;19906;-76
2022/11/14 16:23:25;;;;;;;;;;;19.00;66.40;;;;;;6067669;23;19918;-76
2022/11/14 16:25:51;;;;;;;;;;;18.90;66.60;;;;;;6067477;23;19906;-76
2022/11/14 16:28:18;;;;;;;;;;;18.80;66.70;;;;;;6067183;23;19980;-76
2022/11/14 16:30:45;;;;;;;;;;;18.90;66.50;;;;;;6067305;23;19906;-76
2022/11/14 16:33:11;;;;;;;;;;;18.80;67.20;;;;;;6067262;23;20321;-76
2022/11/14 16:35:38;;;;;;;;;;;18.80;67.40;;;;;;6067146;23;19912;-76
2022/11/14 16:38:04;;;;;;;;;;;18.80;67.30;;;;;;6067072;23;19973;-76
2022/11/14 16:40:31;;;;;;;;;;;18.80;67.10;;;;;;6067553;23;19992;-75
2022/11/14 16:42:58;;;;;;;;;;;18.80;67.10;;;;;;6066877;23;19913;-76
2022/11/14 16:45:25;;;;;;;;;;;18.80;66.90;;;;;;6067313;23;19905;-76
2022/11/14 16:47:52;;;;;;;;;;;18.80;66.50;;;;;;6067431;23;19984;-76
2022/11/14 16:50:18;;;;;;;;;;;18.80;66.50;;;;;;6067349;23;20345;-76
2022/11/14 16:52:45;;;;;;;;;;;18.80;66.70;;;;;;6066731;23;19912;-76
2022/11/14 16:55:12;;;;;;;;;;;18.80;66.60;;;;;;6067561;23;19905;-76
2022/11/14 16:57:39;;;;;;;;;;;18.80;66.80;;;;;;6067346;23;19980;-76
2022/11/14 17:00:09;;;;;;;;;;;18.70;66.30;;;;;;6067276;23;19912;-76
2022/11/14 17:02:36;;;;;;;;;;;18.70;66.60;;;;;;6067543;23;19913;-76
2022/11/14 17:05:02;;;;;;;;;;;18.70;66.70;;;;;;6067381;23;20253;-76
2022/11/14 17:07:31;;;;;;;;;;;18.70;66.90;;;;;;6067254;23;19917;-76
2022/11/14 17:09:59;;;;;;;;;;;18.60;67.40;;;;;;6067472;23;20240;-76
2022/11/14 17:12:26;;;;;;;;;;;18.60;67.00;;;;;;6067381;23;20321;-76
2022/11/14 17:14:53;;;;;;;;;;;18.60;67.40;;;;;;6042157;23;20333;-76
2022/11/14 17:17:20;;;;;;;;;;;18.60;67.40;;;;;;6067031;23;19913;-75
2022/11/14 17:19:46;;;;;;;;;;;18.50;67.30;;;;;;6067326;23;19906;-76
2022/11/14 17:22:13;;;;;;;;;;;18.50;67.60;;;;;;6067518;23;19905;-76
2022/11/14 17:24:40;;;;;;;;;;;18.50;67.50;;;;;;6041983;23;19905;-76
2022/11/14 17:27:07;;;;;;;;;;;18.50;67.70;;;;;;6067117;23;19916;-76
2022/11/14 17:29:34;;;;;;;;;;;18.40;67.80;;;;;;6041700;23;19988;-75
2022/11/14 17:32:01;;;;;;;;;;;18.40;67.90;;;;;;6067423;23;19940;-75
2022/11/14 17:34:27;;;;;;;;;;;18.40;67.70;;;;;;6066939;23;19906;-76
2022/11/14 17:36:54;;;;;;;;;;;18.40;67.90;;;;;;6066939;23;19913;-75
2022/11/14 17:39:21;;;;;;;;;;;18.40;67.70;;;;;;6067201;23;19906;-76
2022/11/14 17:41:48;;;;;;;;;;;18.40;68.00;;;;;;6066981;23;20285;-76
2022/11/14 17:44:14;;;;;;;;;;;18.30;68.00;;;;;;6067201;23;19914;-76
2022/11/14 17:46:41;;;;;;;;;;;18.40;67.90;;;;;;6067319;23;19906;-76
2022/11/14 17:49:08;;;;;;;;;;;18.30;67.90;;;;;;6066790;23;19937;-75
2022/11/14 17:51:34;;;;;;;;;;;18.30;67.90;;;;;;6068992;23;19989;-75
2022/11/14 17:54:01;;;;;;;;;;;18.30;68.20;;;;;;6068557;23;19933;-75
2022/11/14 17:56:28;;;;;;;;;;;18.30;68.30;;;;;;6069069;23;19906;-76
2022/11/14 17:58:54;;;;;;;;;;;18.30;69.00;;;;;;6068825;23;19906;-76
2022/11/14 18:01:22;;;;;;;;;;;18.20;68.40;;;;;;6068055;23;19906;-76
2022/11/14 18:03:49;;;;;;;;;;;18.20;69.00;;;;;;6043480;23;20325;-75
2022/11/14 18:06:17;;;;;;;;;;;18.20;69.10;;;;;;6068819;23;19906;-76
2022/11/14 18:08:44;;;;;;;;;;;18.20;69.30;;;;;;6068509;23;20297;-76
2022/11/14 18:11:11;;;;;;;;;;;18.20;69.10;;;;;;6068831;23;19992;-76
2022/11/14 18:13:38;;;;;;;;;;;18.10;69.40;;;;;;6068969;23;19913;-75
2022/11/14 18:16:11;;;;;;;;;;;18.10;69.10;;;;;;6068230;23;19912;-76
2022/11/14 18:18:38;;;;;;;;;;;18.10;69.40;;;;;;6068727;23;19924;-76
2022/11/14 18:21:08;;;;;;;;;;;18.10;69.10;;;;;;6068714;23;19940;-71
2022/11/14 18:23:37;;;;;;;;;;;18.10;69.10;;;;;;6066231;23;19956;-69
2022/11/14 18:26:13;;;;;;;;;;;18.10;69.10;;;;;;6067931;23;19985;-69
2022/11/14 18:28:40;;;;;;;;;;;18.10;69.30;;;;;;6067640;23;19906;-69
2022/11/14 18:31:09;;;;;;;;;;;18.10;69.20;;;;;;6068614;23;19993;-69
2022/11/14 18:33:36;;;;;;;;;;;18.10;69.00;;;;;;6043013;23;19905;-69
2022/11/14 18:36:03;;;;;;;;;;;18.00;69.50;;;;;;6068206;23;19912;-69
2022/11/14 18:38:33;;;;;;;;;;;18.00;69.10;;;;;;6068426;23;19917;-69
2022/11/14 18:41:00;;;;;;;;;;;18.00;68.90;;;;;;6067937;23;19906;-76
2022/11/14 18:43:30;;;;;;;;;;;18.00;68.70;;;;;;6067893;23;19913;-74
2022/11/14 18:46:06;;;;;;;;;;;18.00;68.60;;;;;;6043510;23;19906;-72
2022/11/14 18:48:33;;;;;;;;;;;18.00;68.40;;;;;;6068273;23;19906;-72
2022/11/14 18:51:03;;;;;;;;;;;18.00;68.60;;;;;;6068380;23;19917;-73
2022/11/14 18:53:30;;;;;;;;;;;18.00;68.50;;;;;;6048995;23;20241;-73
2022/11/14 18:55:57;;;;;;;;;;;18.00;68.60;;;;;;6067901;23;19945;-73
2022/11/14 18:58:24;;;;;;;;;;;18.00;68.80;;;;;;6068476;23;20347;-73
2022/11/14 19:00:50;;;;;;;;;;;18.00;68.70;;;;;;6068259;23;19928;-73
2022/11/14 19:03:18;;;;;;;;;;;18.20;67.60;;;;;;6068172;23;20286;-73
2022/11/14 19:05:45;;;;;;;;;;;18.30;67.00;;;;;;6068539;23;19916;-73
2022/11/14 19:08:11;;;;;;;;;;;18.30;66.80;;;;;;6068002;23;20241;-73
2022/11/14 19:10:38;;;;;;;;;;;18.30;66.30;;;;;;6068098;23;19905;-73
2022/11/14 19:13:04;;;;;;;;;;;18.30;66.20;;;;;;6068424;23;19934;-73
2022/11/14 19:15:31;;;;;;;;;;;18.30;66.80;;;;;;6067942;23;19905;-73
2022/11/14 19:17:57;;;;;;;;;;;18.30;67.00;;;;;;6066432;23;19973;-73
2022/11/14 19:20:24;;;;;;;;;;;18.30;66.40;;;;;;6068238;23;19912;-73
2022/11/14 19:22:51;;;;;;;;;;;18.30;67.00;;;;;;6068333;23;20285;-73
2022/11/14 19:25:17;;;;;;;;;;;18.40;66.70;;;;;;6068475;23;19917;-73
2022/11/14 19:27:48;;;;;;;;;;;18.40;66.30;;;;;;6067993;23;19905;-73
2022/11/14 19:30:15;;;;;;;;;;;18.50;65.40;;;;;;6068037;23;19909;-73
2022/11/14 19:32:42;;;;;;;;;;;18.50;65.10;;;;;;6066579;23;19910;-73
2022/11/14 19:35:09;;;;;;;;;;;18.60;64.70;;;;;;6068029;23;19906;-73
2022/11/14 19:37:35;;;;;;;;;;;18.70;65.00;;;;;;6068035;23;19906;-73
2022/11/14 19:40:02;;;;;;;;;;;18.70;64.40;;;;;;6067980;23;19906;-73
2022/11/14 19:42:29;;;;;;;;;;;18.80;64.40;;;;;;6067556;23;20353;-73
2022/11/14 19:44:55;;;;;;;;;;;18.80;64.50;;;;;;6067967;23;19997;-73
2022/11/14 19:47:22;;;;;;;;;;;18.80;64.30;;;;;;6068151;23;19909;-72
2022/11/14 19:49:49;;;;;;;;;;;18.90;64.00;;;;;;6067874;23;20332;-73
2022/11/14 19:52:15;;;;;;;;;;;18.90;64.80;;;;;;6067825;23;19932;-72
2022/11/14 19:54:42;;;;;;;;;;;18.90;64.40;;;;;;6067655;23;19918;-73
2022/11/14 19:57:08;;;;;;;;;;;19.00;64.30;;;;;;6067764;23;19913;-73
2022/11/14 19:59:35;;;;;;;;;;;19.00;64.20;;;;;;6067817;23;19928;-73
2022/11/14 20:02:02;;;;;;;;;;;19.10;64.00;;;;;;6067566;23;19909;-73
2022/11/14 20:04:28;;;;;;;;;;;19.20;64.00;;;;;;6067330;23;19973;-73
2022/11/14 20:06:55;;;;;;;;;;;19.20;64.50;;;;;;6067874;23;19954;-73
2022/11/14 20:09:22;;;;;;;;;;;19.30;64.20;;;;;;6067435;23;19909;-73
2022/11/14 20:11:48;;;;;;;;;;;19.30;64.20;;;;;;6067365;23;20282;-73
2022/11/14 20:14:15;;;;;;;;;;;19.30;63.20;;;;;;6067288;23;19926;-73
2022/11/14 20:16:42;;;;;;;;;;;19.30;62.80;;;;;;6067851;23;19962;-73
2022/11/14 20:19:08;;;;;;;;;;;19.40;62.40;;;;;;6067196;23;19913;-73
2022/11/14 20:21:36;;;;;;;;;;;19.40;62.20;;;;;;6067702;23;20006;-73
2022/11/14 20:24:03;;;;;;;;;;;19.40;62.30;;;;;;6067055;23;20392;-74
2022/11/14 20:26:30;;;;;;;;;;;19.50;62.70;;;;;;6067489;23;19910;-73
2022/11/14 20:28:57;;;;;;;;;;;19.50;62.20;;;;;;6067489;23;19910;-73
2022/11/14 20:31:26;;;;;;;;;;;19.60;61.70;;;;;;6042186;23;19963;-73
2022/11/14 20:33:52;;;;;;;;;;;19.60;60.80;;;;;;6018409;23;19906;-73
2022/11/14 20:36:20;;;;;;;;;;;19.60;60.90;;;;;;6041865;23;19945;-73
2022/11/14 20:38:47;;;;;;;;;;;19.70;61.20;;;;;;6042011;23;19913;-73
2022/11/14 20:41:13;;;;;;;;;;;19.70;61.60;;;;;;6067361;23;19905;-73
2022/11/14 20:43:40;;;;;;;;;;;19.70;61.10;;;;;;6018253;23;19933;-73
2022/11/14 20:46:11;;;;;;;;;;;19.80;60.70;;;;;;6067323;23;19961;-75
2022/11/14 20:48:37;;;;;;;;;;;20.00;61.40;;;;;;6067215;23;20270;-73
2022/11/14 20:51:05;;;;;;;;;;;20.10;60.00;;;;;;6067077;23;19906;-73
2022/11/14 20:53:32;;;;;;;;;;;20.00;60.10;;;;;;6066875;23;19917;-73
2022/11/14 20:55:58;;;;;;;;;;;20.10;59.50;;;;;;6067462;23;19917;-72
2022/11/14 20:58:26;;;;;;;;;;;20.20;59.90;;;;;;6067322;23;19906;-73
2022/11/14 21:00:56;;;;;;;;;;;20.30;59.40;;;;;;6067229;23;19909;-73
2022/11/14 21:03:22;;;;;;;;;;;20.50;58.00;;;;;;6041687;23;20333;-73
2022/11/14 21:05:49;;;;;;;;;;;20.50;56.00;;;;;;6041773;23;19938;-73
2022/11/14 21:08:16;;;;;;;;;;;20.60;58.50;;;;;;6067064;23;19905;-75
2022/11/14 21:10:46;;;;;;;;;;;20.60;57.20;;;;;;6066650;23;19906;-75
2022/11/14 21:15:57;;;;;;;;;;;20.70;59.00;;;;;;6067253;23;19912;-73
2022/11/14 21:18:24;;;;;;;;;;;20.70;58.50;;;;;;6066856;23;19906;-74
2022/11/14 21:21:00;;;;;;;;;;;20.70;58.90;;;;;;6067097;23;19977;-74
2022/11/14 21:23:27;;;;;;;;;;;20.70;58.00;;;;;;6042052;23;20241;-75
2022/11/14 21:26:04;;;;;;;;;;;20.70;58.60;;;;;;6068386;23;19913;-74
2022/11/14 21:28:31;;;;;;;;;;;20.80;58.00;;;;;;6043820;23;19905;-75
2022/11/14 21:30:59;;;;;;;;;;;20.90;57.50;;;;;;6043913;23;19912;-75
2022/11/14 21:33:29;;;;;;;;;;;21.00;57.30;;;;;;6044110;23;20258;-75
2022/11/14 21:35:56;;;;;;;;;;;21.20;56.30;;;;;;6069122;23;19910;-74
2022/11/14 21:38:23;;;;;;;;;;;21.20;55.70;;;;;;6043173;23;20244;-74
2022/11/14 21:40:53;;;;;;;;;;;21.30;54.90;;;;;;6069443;23;19914;-74
2022/11/14 21:43:20;;;;;;;;;;;21.30;56.50;;;;;;6068413;23;20321;-76
2022/11/14 21:45:54;;;;;;;;;;;21.30;55.80;;;;;;6043982;23;19913;-76
2022/11/14 21:48:20;;;;;;;;;;;21.30;55.10;;;;;;6068836;23;19905;-75
2022/11/14 21:50:47;;;;;;;;;;;21.30;55.50;;;;;;6068759;23;19954;-75
2022/11/14 21:53:16;;;;;;;;;;;21.30;55.90;;;;;;6068293;23;19917;-75
2022/11/14 21:55:43;;;;;;;;;;;21.30;56.10;;;;;;6068685;23;19906;-75
2022/11/14 21:58:11;;;;;;;;;;;21.30;55.90;;;;;;6068552;23;19961;-74
2022/11/14 22:00:38;;;;;;;;;;;21.30;56.80;;;;;;6068490;23;19906;-75
2022/11/14 22:05:58;;;;;;;;;;;21.30;57.70;;;;;;6068672;23;19912;-75
2022/11/14 22:08:25;;;;;;;;;;;21.30;55.50;;;;;;6069138;23;20214;-75
2022/11/14 22:10:52;;;;;;;;;;;21.30;56.90;;;;;;6068342;23;19912;-75
2022/11/14 22:13:19;;;;;;;;;;;21.30;56.70;;;;;;6068914;23;20312;-76
2022/11/14 22:15:45;;;;;;;;;;;21.30;56.50;;;;;;6068114;23;19906;-75
2022/11/14 22:18:12;;;;;;;;;;;21.40;55.40;;;;;;6043148;23;20257;-75
2022/11/14 22:20:38;;;;;;;;;;;21.40;55.90;;;;;;6068278;23;19906;-76
2022/11/14 22:23:05;;;;;;;;;;;21.60;56.70;;;;;;6068495;23;20285;-76
2022/11/14 22:25:32;;;;;;;;;;;21.70;55.80;;;;;;6068375;23;19910;-76
2022/11/14 22:27:58;;;;;;;;;;;21.70;53.20;;;;;;6068281;23;19937;-75
2022/11/14 22:30:25;;;;;;;;;;;21.70;54.50;;;;;;6066937;23;20236;-75
2022/11/14 22:32:51;;;;;;;;;;;21.70;55.10;;;;;;6066502;23;19906;-75
2022/11/14 22:35:18;;;;;;;;;;;21.80;54.90;;;;;;6067170;23;19916;-76
2022/11/14 22:37:45;;;;;;;;;;;21.90;54.70;;;;;;6066246;23;19906;-75
2022/11/14 22:40:12;;;;;;;;;;;22.00;55.00;;;;;;6067491;23;19917;-75
2022/11/14 22:42:38;;;;;;;;;;;22.20;54.90;;;;;;6067609;23;19924;-75
2022/11/14 22:45:05;;;;;;;;;;;22.30;53.60;;;;;;6067929;23;20257;-74
2022/11/14 22:47:32;;;;;;;;;;;22.20;51.90;;;;;;6066521;23;19922;-72
2022/11/14 22:49:59;;;;;;;;;;;22.30;54.30;;;;;;6066748;23;19916;-72
2022/11/14 22:52:25;;;;;;;;;;;22.40;53.40;;;;;;6039832;23;19949;-73
2022/11/14 22:54:52;;;;;;;;;;;22.40;51.80;;;;;;6094406;23;19976;-72
2022/11/14 22:57:19;;;;;;;;;;;22.60;53.00;;;;;;6095903;23;19905;-73
2022/11/14 22:59:45;;;;;;;;;;;22.60;51.70;;;;;;6095906;23;19905;-73
2022/11/14 23:02:12;;;;;;;;;;;22.70;52.90;;;;;;6095140;23;19913;-73
2022/11/14 23:04:38;;;;;;;;;;;22.70;54.30;;;;;;6095612;23;19913;-74
2022/11/14 23:07:05;;;;;;;;;;;22.60;54.90;;;;;;6096109;23;19905;-73
2022/11/14 23:09:32;;;;;;;;;;;22.50;53.50;;;;;;6096054;23;19916;-75
2022/11/14 23:11:58;;;;;;;;;;;22.30;53.70;;;;;;6096697;23;19905;-74
2022/11/14 23:14:25;;;;;;;;;;;22.30;55.30;;;;;;6097184;23;20269;-74
2022/11/14 23:16:52;;;;;;;;;;;22.30;55.60;;;;;;6097027;23;19905;-73
2022/11/14 23:19:18;;;;;;;;;;;22.20;60.30;;;;;;6096202;23;19912;-74
2022/11/14 23:21:45;;;;;;;;;;;22.20;56.40;;;;;;6096714;23;19905;-74
2022/11/14 23:24:12;;;;;;;;;;;22.30;55.80;;;;;;6096747;23;19924;-73
2022/11/14 23:26:39;;;;;;;;;;;22.40;56.70;;;;;;6096763;23;19929;-73
2022/11/14 23:29:05;;;;;;;;;;;22.40;57.30;;;;;;6096371;23;20248;-73
2022/11/14 23:31:32;;;;;;;;;;;22.50;58.20;;;;;;6097220;23;19916;-73
2022/11/14 23:33:59;;;;;;;;;;;22.70;54.70;;;;;;6097147;23;19913;-73
2022/11/14 23:36:25;;;;;;;;;;;22.70;57.90;;;;;;6097060;23;19917;-73
2022/11/14 23:38:52;;;;;;;;;;;22.70;59.10;;;;;;6094886;23;19909;-73
2022/11/14 23:41:20;;;;;;;;;;;22.60;56.40;;;;;;6096466;23;19966;-73
2022/11/14 23:43:47;;;;;;;;;;;22.60;57.20;;;;;;6067235;23;20218;-73
2022/11/14 23:46:13;;;;;;;;;;;22.70;56.50;;;;;;6067865;23;20423;-72
2022/11/14 23:48:40;;;;;;;;;;;22.60;58.20;;;;;;6069995;23;19906;-74
2022/11/14 23:51:08;;;;;;;;;;;22.70;57.90;;;;;;6096290;23;20273;-73
2022/11/14 23:53:34;;;;;;;;;;;22.70;57.00;;;;;;6082561;23;19949;-73
2022/11/14 23:56:01;;;;;;;;;;;22.80;55.60;;;;;;6067275;23;19980;-75
2022/11/14 23:58:28;;;;;;;;;;;22.70;55.90;;;;;;6066868;23;19934;-74
